createdAt,value
2019-03-03T00:02:51.397Z,23.00
2019-03-03T00:06:13.523Z,22.77
2019-03-03T00:09:35.987Z,22.70
2019-03-03T00:12:58.319Z,22.47
2019-03-03T00:16:20.420Z,23.03
2019-03-03T00:19:43.144Z,23.63
2019-03-03T00:23:05.650Z,22.57
2019-03-03T00:26:28.218Z,22.63
2019-03-03T00:29:50.734Z,23.80
2019-03-03T00:33:13.218Z,23.93
2019-03-03T00:36:53.691Z,22.87
2019-03-03T00:40:41.410Z,24.50
2019-03-03T00:44:16.824Z,23.57
2019-03-03T00:47:56.907Z,22.77
2019-03-03T00:51:34.937Z,23.80
2019-03-03T00:55:08.610Z,23.80
2019-03-03T00:58:53.520Z,23.10
2019-03-03T01:02:36.426Z,24.17
2019-03-03T01:06:33.896Z,24.73
2019-03-03T01:10:11.073Z,24.17
2019-03-03T01:13:58.750Z,25.10
2019-03-03T01:17:36.391Z,25.53
2019-03-03T01:21:07.863Z,25.83
2019-03-03T01:24:48.835Z,26.67
2019-03-03T01:28:11.127Z,27.10
2019-03-03T01:31:33.300Z,26.37
2019-03-03T01:34:55.838Z,28.10
2019-03-03T01:38:18.693Z,29.80
2019-03-03T01:41:41.218Z,30.77
2019-03-03T01:45:04.506Z,29.77
2019-03-03T01:48:27.022Z,33.10
2019-03-03T01:51:49.950Z,32.97
2019-03-03T01:55:12.643Z,35.40
2019-03-03T01:58:35.769Z,34.83
2019-03-03T02:01:58.576Z,35.37
2019-03-03T02:05:21.487Z,34.23
2019-03-03T02:08:43.913Z,32.97
2019-03-03T02:12:06.313Z,32.10
2019-03-03T02:15:28.938Z,33.00
2019-03-03T02:18:51.686Z,32.80
2019-03-03T02:22:14.163Z,33.63
2019-03-03T02:25:36.663Z,34.67
2019-03-03T02:28:59.066Z,37.13
2019-03-03T02:32:21.586Z,36.00
2019-03-03T02:35:43.943Z,35.97
2019-03-03T02:39:13.981Z,36.83
2019-03-03T02:42:36.482Z,37.07
2019-03-03T02:45:59.229Z,36.20
2019-03-03T02:49:21.530Z,37.57
2019-03-03T02:52:44.585Z,37.97
2019-03-03T02:56:06.945Z,40.40
2019-03-03T02:59:29.616Z,40.00
2019-03-03T03:02:54.129Z,39.80
2019-03-03T03:06:35.005Z,42.10
2019-03-03T03:10:03.341Z,40.97
2019-03-03T03:13:41.904Z,43.30
2019-03-03T03:17:26.305Z,42.03
2019-03-03T03:20:58.014Z,44.33
2019-03-03T03:24:42.434Z,42.80
2019-03-03T03:28:13.326Z,43.47
2019-03-03T03:31:52.650Z,41.07
2019-03-03T03:35:40.325Z,42.07
2019-03-03T03:39:10.511Z,42.50
2019-03-03T03:42:56.100Z,40.17
2019-03-03T03:46:37.321Z,41.47
2019-03-03T03:50:09.433Z,41.80
2019-03-03T03:53:42.555Z,42.40
2019-03-03T03:57:24.966Z,41.53
2019-03-03T04:01:04.294Z,39.67
2019-03-03T04:04:48.913Z,41.33
2019-03-03T04:08:29.679Z,40.73
2019-03-03T04:11:59.458Z,39.43
2019-03-03T04:15:41.217Z,39.03
2019-03-03T04:19:18.911Z,41.30
2019-03-03T04:22:54.587Z,39.03
2019-03-03T04:26:24.725Z,36.43
2019-03-03T04:29:56.997Z,35.53
2019-03-03T04:33:47.786Z,36.07
2019-03-03T04:37:22.443Z,35.10
2019-03-03T04:40:53.253Z,33.50
2019-03-03T04:44:47.274Z,33.57
2019-03-03T04:48:17.074Z,32.10
2019-03-03T04:51:56.289Z,31.27
2019-03-03T04:55:30.329Z,30.30
2019-03-03T04:59:06.005Z,29.83
2019-03-03T05:02:41.522Z,28.17
2019-03-03T05:06:19.837Z,27.23
2019-03-03T05:10:00.353Z,27.23
2019-03-03T05:13:30.364Z,26.33
2019-03-03T05:17:00.429Z,26.70
2019-03-03T05:20:23.118Z,24.70
2019-03-03T05:23:45.671Z,24.57
2019-03-03T05:27:08.188Z,22.50
2019-03-03T05:30:30.677Z,22.27
2019-03-03T05:33:53.353Z,22.23
2019-03-03T05:37:15.752Z,21.47
2019-03-03T05:40:38.130Z,21.20
2019-03-03T05:44:00.557Z,21.40
2019-03-03T05:47:23.402Z,21.07
2019-03-03T05:50:46.233Z,21.73
2019-03-03T05:54:08.797Z,19.93
2019-03-03T05:57:31.241Z,20.17
2019-03-03T06:00:53.602Z,18.53
2019-03-03T06:04:17.529Z,18.07
2019-03-03T06:07:39.937Z,16.43
2019-03-03T06:11:02.376Z,17.43
2019-03-03T06:14:24.554Z,15.43
2019-03-03T06:17:47.006Z,14.33
2019-03-03T06:21:09.706Z,14.57
2019-03-03T06:24:31.867Z,13.83
2019-03-03T06:27:54.589Z,12.77
2019-03-03T06:31:17.120Z,12.23
2019-03-03T06:34:39.597Z,12.37
2019-03-03T06:38:02.032Z,12.07
2019-03-03T06:41:57.008Z,12.63
2019-03-03T06:45:20.074Z,11.43
2019-03-03T06:48:42.500Z,10.97
2019-03-03T06:52:05.347Z,9.87
2019-03-03T07:00:00.017Z,9.80
2019-03-03T07:03:22.205Z,9.90
2019-03-03T07:06:44.793Z,8.40
